Time;durP1;ratioP1;P1;durP2;ratioP2;P2;SDS_P1;SDS_P2;PMS_P1;PMS_P2;Temp;Humidity;BMP_temperature;BMP_pressure;BME280_temperature;BME280_humidity;BME280_pressure;Samples;Min_cycle;Max_cycle;Signal;HPM_P1;HPM_P2
2023/06/12 00:00:26;;;;;;;9.77;3.60;;;;;;;16.14;49.34;98008.78;10530152;28;20076;-69
2023/06/12 00:06:09;;;;;;;9.27;3.33;;;;;;;16.05;48.73;97992.84;10532855;28;20044;-69
2023/06/12 00:11:30;;;;;;;5.63;3.35;;;;;;;16.03;48.91;97995.56;10515597;28;20121;-69
2023/06/12 00:16:51;;;;;;;7.80;3.30;;;;;;;16.01;48.87;97993.34;10529480;28;20047;-71
2023/06/12 00:22:12;;;;;;;6.78;3.60;;;;;;;15.98;48.77;97986.16;10529577;28;20409;-69
2023/06/12 00:27:32;;;;;;;5.00;3.55;;;;;;;15.92;48.83;97987.94;10543861;28;20068;-69
2023/06/12 00:32:54;;;;;;;5.82;3.58;;;;;;;15.87;49.39;97986.28;10513260;28;20115;-68
2023/06/12 00:38:15;;;;;;;10.40;4.28;;;;;;;15.77;49.30;97974.50;10513969;28;20063;-68
2023/06/12 00:43:36;;;;;;;4.93;3.30;;;;;;;15.69;49.05;97969.91;10513713;28;20101;-68
2023/06/12 00:48:56;;;;;;;5.65;3.78;;;;;;;15.60;49.45;97956.78;10542690;28;20040;-69
2023/06/12 00:54:17;;;;;;;6.20;3.50;;;;;;;15.52;49.56;97964.78;10527331;28;20469;-69
2023/06/12 00:59:37;;;;;;;5.03;3.03;;;;;;;15.50;49.63;97961.16;10527327;28;20076;-69
2023/06/12 01:04:59;;;;;;;6.70;3.83;;;;;;;15.46;49.45;97958.88;10506188;28;20055;-69
2023/06/12 01:10:34;;;;;;;9.43;3.22;;;;;;;15.41;49.38;97957.91;10485106;28;20047;-69
2023/06/12 01:15:55;;;;;;;6.95;3.60;;;;;;;15.33;49.53;97963.09;10472252;28;20064;-69
2023/06/12 01:21:17;;;;;;;8.50;3.10;;;;;;;15.24;49.62;97949.25;10499504;28;20086;-69
2023/06/12 01:27:03;;;;;;;5.28;3.13;;;;;;;15.16;50.06;97944.66;10470721;28;20040;-68
2023/06/12 01:32:24;;;;;;;4.57;3.05;;;;;;;15.10;49.83;97966.84;10473110;28;20068;-69
2023/06/12 01:37:47;;;;;;;4.88;2.85;;;;;;;15.04;50.10;97954.53;10483825;28;20128;-69
2023/06/12 01:43:13;;;;;;;7.32;2.75;;;;;;;15.04;50.10;97954.53;10458232;28;20052;-68
2023/06/12 01:48:34;;;;;;;6.95;3.10;;;;;;;14.97;50.09;97950.69;10451804;28;20486;-69
2023/06/12 01:53:55;;;;;;;6.90;2.60;;;;;;;14.94;50.06;97959.59;10468383;28;20060;-69
2023/06/12 01:59:16;;;;;;;7.72;3.08;;;;;;;14.92;50.43;97949.00;10469633;28;20051;-69
2023/06/12 02:04:38;;;;;;;7.97;3.00;;;;;;;14.91;50.45;97955.22;10514719;28;20075;-69
2023/06/12 02:09:59;;;;;;;6.20;2.60;;;;;;;14.95;50.60;97958.97;10510882;28;20071;-69
2023/06/12 02:15:20;;;;;;;5.88;2.92;;;;;;;14.91;50.43;97964.41;10524537;28;20074;-69
2023/06/12 02:20:42;;;;;;;5.70;3.25;;;;;;;14.84;50.73;97959.78;10524836;28;20097;-69
2023/06/12 02:26:02;;;;;;;5.80;3.03;;;;;;;14.79;51.01;97966.56;10524243;28;20036;-68
2023/06/12 02:31:25;;;;;;;7.50;3.45;;;;;;;14.72;50.95;97973.19;10496416;28;20067;-69
2023/06/12 02:36:46;;;;;;;5.88;3.53;;;;;;;14.63;51.52;97974.09;10496899;28;20052;-69
2023/06/12 02:42:14;;;;;;;6.05;2.72;;;;;;;14.62;51.81;97981.78;10511126;28;20138;-69
2023/06/12 02:47:37;;;;;;;5.13;3.13;;;;;;;14.57;51.87;97978.03;10510398;28;20112;-68
2023/06/12 02:53:00;;;;;;;6.07;3.03;;;;;;;14.53;52.16;97979.88;10512648;28;20482;-71
2023/06/12 02:58:21;;;;;;;8.65;3.42;;;;;;;14.54;51.76;97984.13;10518145;28;20059;-69
2023/06/12 03:03:43;;;;;;;10.88;3.33;;;;;;;14.53;52.46;97977.06;10532078;28;20482;-69
2023/06/12 03:09:05;;;;;;;4.93;3.17;;;;;;;14.53;52.68;97980.59;10544697;28;20074;-69
2023/06/12 03:14:27;;;;;;;8.60;3.20;;;;;;;14.54;52.41;97984.88;10553299;28;20398;-69
2023/06/12 03:19:48;;;;;;;5.90;3.22;;;;;;;14.58;52.67;97985.09;10538586;28;20063;-69
2023/06/12 03:25:10;;;;;;;8.20;3.30;;;;;;;14.64;52.41;97998.00;10513907;28;20040;-68
2023/06/12 03:30:31;;;;;;;5.32;2.92;;;;;;;14.72;53.09;97995.66;10527882;28;20039;-69
2023/06/12 03:35:52;;;;;;;7.40;3.55;;;;;;;14.74;52.52;97998.56;10550186;28;20504;-69
2023/06/12 03:41:13;;;;;;;6.20;3.25;;;;;;;14.79;53.15;98003.81;10550297;28;20067;-68
2023/06/12 03:46:35;;;;;;;6.72;3.20;;;;;;;14.88;52.96;98002.19;10578078;28;20043;-68
2023/06/12 03:51:56;;;;;;;6.45;3.00;;;;;;;14.96;53.08;98005.44;10550024;28;20036;-68
2023/06/12 03:57:17;;;;;;;4.30;2.83;;;;;;;15.06;53.03;98020.03;10537193;28;20063;-69
2023/06/12 04:02:38;;;;;;;5.50;2.97;;;;;;;15.18;52.89;98023.50;10550747;28;20056;-69
2023/06/12 04:07:59;;;;;;;5.63;3.28;;;;;;;15.37;52.64;98022.41;10536711;28;20110;-69
2023/06/12 04:13:21;;;;;;;5.15;3.67;;;;;;;15.42;52.47;98031.78;10532964;28;20069;-69
2023/06/12 04:18:45;;;;;;;8.35;3.95;;;;;;;15.49;52.34;98030.03;10519573;28;20089;-69
2023/06/12 04:24:13;;;;;;;5.37;3.33;;;;;;;15.65;52.17;98025.28;10545104;28;20051;-69
2023/06/12 04:29:37;;;;;;;7.10;3.92;;;;;;;15.84;52.11;98029.75;10549152;28;20071;-69
2023/06/12 04:34:58;;;;;;;5.80;3.15;;;;;;;15.88;51.75;98035.59;10560185;28;20040;-68
2023/06/12 04:40:22;;;;;;;6.93;3.83;;;;;;;15.91;51.93;98035.06;10555576;28;20056;-69
2023/06/12 04:45:47;;;;;;;9.50;3.80;;;;;;;15.92;51.43;98028.09;10543176;28;20059;-68
2023/06/12 04:51:08;;;;;;;7.45;3.63;;;;;;;16.20;51.27;98030.88;10566028;28;20062;-69
2023/06/12 04:56:31;;;;;;;5.82;3.90;;;;;;;16.73;50.40;98031.41;10555189;28;20040;-68
2023/06/12 05:01:53;;;;;;;7.05;4.10;;;;;;;17.30;49.75;98048.16;10568382;28;20043;-69
2023/06/12 05:07:16;;;;;;;10.48;4.68;;;;;;;17.96;48.45;98034.88;10583945;28;20047;-68
2023/06/12 05:12:40;;;;;;;6.18;3.45;;;;;;;18.30;47.13;98041.25;10554715;28;20052;-75
2023/06/12 05:18:02;;;;;;;7.13;3.78;;;;;;;18.31;46.57;98042.69;10525850;28;20048;-71
2023/06/12 05:23:23;;;;;;;7.57;3.78;;;;;;;18.34;47.14;98055.56;10548812;27;20044;-76
2023/06/12 05:28:44;;;;;;;5.82;4.00;;;;;;;18.79;46.31;98041.16;10511334;28;20103;-76
2023/06/12 05:34:07;;;;;;;6.00;3.40;;;;;;;19.47;45.13;98044.47;10525464;28;20044;-75
2023/06/12 05:39:29;;;;;;;8.00;3.58;;;;;;;19.90;43.77;98049.63;10524699;28;20047;-75
2023/06/12 05:44:50;;;;;;;6.13;3.80;;;;;;;20.52;43.08;98049.63;10507343;28;20047;-76
2023/06/12 05:50:11;;;;;;;7.68;3.45;;;;;;;20.75;42.19;98057.50;10510234;28;20044;-75
2023/06/12 05:55:32;;;;;;;5.22;3.90;;;;;;;20.44;42.50;98066.38;10531497;28;20040;-76
2023/06/12 06:00:55;;;;;;;8.25;3.42;;;;;;;19.88;42.92;98075.06;10524236;28;20757;-75
2023/06/12 06:06:36;;;;;;;11.10;3.65;;;;;;;20.07;43.33;98073.59;10569313;28;20451;-74
2023/06/12 06:11:59;;;;;;;7.25;3.20;;;;;;;20.74;42.06;98070.22;10552187;28;20039;-73
2023/06/12 06:17:23;;;;;;;;;;;;;;;21.17;41.39;98074.44;10538729;28;20495;-74
2023/06/12 06:22:44;;;;;;;8.07;3.70;;;;;;;21.50;41.42;98081.09;10551032;28;20380;-73
2023/06/12 06:28:05;;;;;;;7.75;3.45;;;;;;;21.24;41.16;98081.03;10610630;27;20490;-73
2023/06/12 06:33:26;;;;;;;5.35;3.45;;;;;;;22.16;40.77;98078.75;10602486;27;20055;-74
2023/06/12 06:38:47;;;;;;;5.43;3.53;;;;;;;22.97;38.83;98092.25;10588217;27;20039;-74
2023/06/12 06:44:08;;;;;;;6.60;3.40;;;;;;;23.28;38.06;98085.16;10602304;27;20047;-74
2023/06/12 06:49:30;;;;;;;6.90;3.17;;;;;;;23.03;37.94;98081.00;10586285;27;20046;-74
2023/06/12 06:54:51;;;;;;;5.88;3.47;;;;;;;22.86;38.61;98093.38;10583885;27;20059;-71
2023/06/12 07:00:13;;;;;;;5.47;3.78;;;;;;;22.80;38.02;98093.94;10584070;27;20050;-72
2023/06/12 07:05:36;;;;;;;6.93;3.72;;;;;;;21.99;39.55;98103.13;10608884;27;20115;-72
2023/06/12 07:10:58;;;;;;;5.85;3.42;;;;;;;23.14;38.95;98101.91;10601069;27;20430;-72
2023/06/12 07:16:19;;;;;;;6.32;3.10;;;;;;;23.68;37.95;98102.44;10601399;27;20043;-72
2023/06/12 07:21:40;;;;;;;6.57;3.22;;;;;;;23.72;37.58;98101.06;10600752;27;20047;-72
2023/06/12 07:27:01;;;;;;;5.88;3.63;;;;;;;24.16;36.83;98102.00;10586755;27;20072;-72
2023/06/12 07:32:22;;;;;;;4.63;3.15;;;;;;;23.86;36.87;98095.69;10586177;27;20472;-75
2023/06/12 07:37:45;;;;;;;5.95;3.05;;;;;;;24.47;36.08;98088.31;10599802;27;20043;-72
2023/06/12 07:43:06;;;;;;;5.88;3.10;;;;;;;25.00;35.39;98097.81;10600329;27;20047;-72
2023/06/12 07:48:30;;;;;;;7.78;3.10;;;;;;;25.11;34.27;98099.44;10600099;27;20486;-72
2023/06/12 07:53:52;;;;;;;;;;;;;;;24.46;34.63;98090.47;10586365;27;20114;-72
2023/06/12 07:59:17;;;;;;;4.68;2.47;;;;;;;25.01;34.63;98090.69;10599788;27;19920;-72
2023/06/12 08:04:46;;;;;;;4.65;2.72;;;;;;;25.44;33.09;98094.19;10586910;27;20503;-72
2023/06/12 08:10:09;;;;;;;;;;;;;;;25.95;32.50;98099.19;10559465;27;20481;-72
2023/06/12 08:15:30;;;;;;;8.32;2.60;;;;;;;25.77;32.04;98095.38;10555998;28;19927;-71
2023/06/12 08:20:52;;;;;;;5.75;2.35;;;;;;;25.71;31.29;98098.88;10529704;28;20063;-72
2023/06/12 08:26:13;;;;;;;6.03;2.50;;;;;;;24.76;31.50;98093.13;10539217;28;20435;-72
2023/06/12 08:31:34;;;;;;;4.30;2.13;;;;;;;24.63;32.92;98094.34;10541570;28;20481;-72
2023/06/12 08:36:55;;;;;;;5.82;2.10;;;;;;;24.87;32.15;98091.16;10555411;28;20063;-71
2023/06/12 08:42:16;;;;;;;7.38;2.28;;;;;;;24.98;30.84;98087.06;10541040;28;20051;-71
2023/06/12 08:47:38;;;;;;;2.72;2.03;;;;;;;25.57;28.95;98090.81;10555227;28;20039;-70
2023/06/12 08:52:59;;;;;;;5.25;1.88;;;;;;;25.74;28.54;98088.91;10538954;28;20093;-71
2023/06/12 08:58:20;;;;;;;4.63;2.05;;;;;;;25.93;27.87;98079.16;10552250;28;20043;-70
2023/06/12 09:03:43;;;;;;;4.93;1.85;;;;;;;26.48;27.14;98081.94;10583616;28;20056;-70
2023/06/12 09:09:05;;;;;;;4.07;2.20;;;;;;;25.95;25.95;98070.59;10554622;28;20535;-70
2023/06/12 09:14:26;;;;;;;4.25;1.70;;;;;;;26.40;24.71;98073.25;10540487;28;20473;-70
2023/06/12 09:19:47;;;;;;;7.05;1.98;;;;;;;26.01;24.78;98072.81;10553879;28;20039;-69
2023/06/12 09:25:09;;;;;;;2.60;2.03;;;;;;;26.48;25.36;98076.91;10539926;28;20112;-69
2023/06/12 09:30:31;;;;;;;5.83;2.03;;;;;;;26.89;24.48;98080.13;10539659;28;20400;-70
2023/06/12 09:35:52;;;;;;;;;;;;;;;26.70;25.68;98084.28;10568083;28;20040;-70
2023/06/12 09:41:13;;;;;;;3.72;1.95;;;;;;;26.26;25.80;98082.41;10552885;28;20047;-70
2023/06/12 09:46:37;;;;;;;6.13;2.40;;;;;;;26.11;27.30;98081.50;10553026;28;20160;-69
2023/06/12 09:52:01;;;;;;;6.07;2.25;;;;;;;26.09;27.29;98080.78;10567526;28;20054;-70
2023/06/12 09:57:22;;;;;;;5.20;1.75;;;;;;;26.49;24.86;98084.09;10550283;28;20047;-70
2023/06/12 10:02:55;;;;;;;2.60;1.80;;;;;;;26.08;24.13;98087.91;10507281;28;20068;-70
2023/06/12 10:08:17;;;;;;;2.75;1.90;;;;;;;25.85;24.82;98092.63;10510139;28;20579;-69
2023/06/12 10:13:38;;;;;;;4.65;2.25;;;;;;;25.31;26.01;98096.88;10496450;28;20394;-70
2023/06/12 10:18:58;;;;;;;3.45;2.00;;;;;;;25.23;26.95;98093.19;10510105;28;20064;-71
2023/06/12 10:24:20;;;;;;;2.42;2.00;;;;;;;24.40;28.05;98083.91;10509975;28;20068;-70
2023/06/12 10:29:42;;;;;;;5.22;2.03;;;;;;;25.24;28.52;98092.47;10496602;28;20063;-72
2023/06/12 10:35:03;;;;;;;3.70;2.05;;;;;;;25.82;27.27;98080.44;10523874;28;20131;-71
2023/06/12 10:40:24;;;;;;;4.28;2.30;;;;;;;25.74;27.08;98088.91;10496049;28;20397;-68
2023/06/12 10:46:05;;;;;;;4.00;2.15;;;;;;;24.63;28.64;98076.50;10512207;28;20050;-67
2023/06/12 10:51:31;;;;;;;10.13;1.98;;;;;;;24.34;29.26;98075.25;10509323;28;20048;-68
2023/06/12 10:56:59;;;;;;;2.70;1.85;;;;;;;24.52;29.24;98069.88;10533227;28;20039;-68
2023/06/12 11:02:20;;;;;;;5.63;2.30;;;;;;;25.08;28.41;98063.66;10535176;28;20543;-67
2023/06/12 11:07:41;;;;;;;4.50;1.83;;;;;;;25.13;28.71;98059.47;10536467;28;20111;-68
2023/06/12 11:13:03;;;;;;;6.40;2.17;;;;;;;25.49;28.27;98047.84;10549600;28;20381;-68
2023/06/12 11:18:24;;;;;;;3.33;1.70;;;;;;;25.96;27.16;98052.03;10567070;28;20392;-67
2023/06/12 11:23:45;;;;;;;4.93;1.90;;;;;;;26.31;26.39;98032.38;10567114;28;20039;-68
2023/06/12 11:29:16;;;;;;;4.47;2.17;;;;;;;25.37;26.17;98036.94;10568169;28;20038;-68
2023/06/12 11:34:41;;;;;;;3.42;1.85;;;;;;;24.30;27.93;98029.50;10587429;28;20397;-67
2023/06/12 11:40:08;;;;;;;4.53;1.77;;;;;;;25.13;27.44;98022.34;10543887;28;20074;-68
2023/06/12 11:45:31;;;;;;;6.82;2.05;;;;;;;25.64;26.36;98014.44;10572933;28;20390;-68
2023/06/12 11:50:52;;;;;;;4.45;1.90;;;;;;;25.49;26.96;98018.56;10557637;28;20035;-68
2023/06/12 11:56:13;;;;;;;5.37;2.23;;;;;;;25.62;26.39;98026.56;10557626;28;20040;-68
2023/06/12 12:01:37;;;;;;;3.47;1.77;;;;;;;25.74;26.18;98011.00;10586169;28;20051;-68
2023/06/12 12:06:59;;;;;;;4.60;1.90;;;;;;;25.47;25.83;98018.50;10570913;28;20469;-68
2023/06/12 12:12:20;;;;;;;6.32;1.60;;;;;;;25.03;27.27;98007.91;10556537;28;20046;-68
2023/06/12 12:17:41;;;;;;;3.83;1.63;;;;;;;25.37;26.61;98011.25;10570597;28;20067;-68
2023/06/12 12:23:04;;;;;;;5.93;1.73;;;;;;;25.28;26.41;98006.84;10556338;28;20118;-68
2023/06/12 12:28:25;;;;;;;8.52;2.00;;;;;;;25.19;26.90;98013.13;10555149;28;20489;-68
2023/06/12 12:33:46;;;;;;;7.07;1.98;;;;;;;24.52;27.92;98007.09;10584830;28;20089;-68
2023/06/12 12:39:07;;;;;;;4.82;2.10;;;;;;;24.64;27.56;98004.44;10585115;28;20035;-68
2023/06/12 12:44:27;;;;;;;3.30;1.40;;;;;;;24.07;28.38;97997.75;10541251;28;20074;-68
2023/06/12 12:49:48;;;;;;;4.07;1.50;;;;;;;23.95;28.49;98000.38;10569279;28;20050;-68
2023/06/12 12:55:16;;;;;;;6.03;2.00;;;;;;;24.34;27.87;97998.97;10555700;28;20169;-68
2023/06/12 13:00:38;;;;;;;8.25;1.55;;;;;;;24.91;27.52;97993.44;10554337;28;20157;-68
2023/06/12 13:05:58;;;;;;;3.03;1.40;;;;;;;25.47;27.15;97987.06;10554436;28;20135;-68
2023/06/12 13:11:19;;;;;;;2.47;1.30;;;;;;;25.85;26.09;97976.13;10568217;28;20068;-68
2023/06/12 13:16:40;;;;;;;3.13;1.15;;;;;;;25.57;26.63;97972.91;10554261;28;20513;-68
2023/06/12 13:22:02;;;;;;;3.42;1.30;;;;;;;24.95;27.23;97977.09;10567977;28;20101;-68
2023/06/12 13:27:22;;;;;;;3.80;1.45;;;;;;;24.35;28.03;97962.59;10567944;28;20043;-68
2023/06/12 13:32:43;;;;;;;3.20;1.23;;;;;;;24.25;27.71;97961.00;10567260;28;20036;-68
2023/06/12 13:38:05;;;;;;;8.45;1.17;;;;;;;24.25;28.23;97940.31;10582045;28;20040;-68
2023/06/12 13:43:27;;;;;;;7.05;1.80;;;;;;;24.32;27.81;97958.25;10553531;28;20043;-68
2023/06/12 13:48:50;;;;;;;7.80;1.60;;;;;;;23.55;28.35;97946.16;10566758;28;20055;-68
2023/06/12 13:54:11;;;;;;;3.15;1.10;;;;;;;23.36;28.88;97942.94;10553375;28;20043;-67
2023/06/12 13:59:34;;;;;;;5.35;1.77;;;;;;;23.05;29.16;97950.09;10566587;28;20044;-67
2023/06/12 14:04:56;;;;;;;4.90;1.50;;;;;;;22.87;29.11;97946.84;10538018;28;20052;-67
2023/06/12 14:10:17;;;;;;;2.20;1.25;;;;;;;22.70;29.56;97942.19;10581130;28;20072;-67
2023/06/12 14:15:42;;;;;;;4.45;1.58;;;;;;;22.67;29.57;97935.72;10551888;28;20047;-67
2023/06/12 14:21:07;;;;;;;3.40;1.40;;;;;;;22.41;30.10;97933.00;10581478;28;20078;-67
2023/06/12 14:26:27;;;;;;;2.30;1.30;;;;;;;22.35;30.44;97926.41;10580637;28;20681;-67
2023/06/12 14:31:48;;;;;;;4.65;1.38;;;;;;;22.53;29.96;97933.25;10580596;28;20036;-67
2023/06/12 14:37:10;;;;;;;3.88;1.50;;;;;;;22.54;29.15;97925.44;10565218;28;20115;-67
2023/06/12 14:42:31;;;;;;;2.90;1.33;;;;;;;22.48;29.26;97931.72;10580461;28;20058;-67
2023/06/12 14:47:55;;;;;;;3.47;1.83;;;;;;;22.42;29.52;97934.44;10580396;28;20044;-67
2023/06/12 14:53:17;;;;;;;8.40;1.88;;;;;;;22.40;29.81;97934.38;10588357;28;20062;-67
2023/06/12 14:58:37;;;;;;;2.63;1.50;;;;;;;22.26;30.16;97919.81;10545037;28;20043;-67
2023/06/12 15:03:58;;;;;;;9.65;1.98;;;;;;;22.24;29.94;97914.09;10572932;28;20056;-67
2023/06/12 15:09:20;;;;;;;4.03;1.33;;;;;;;22.32;30.26;97916.41;10572838;28;20473;-67
2023/06/12 15:14:43;;;;;;;5.35;1.85;;;;;;;21.93;30.32;97910.47;10587716;28;20082;-67
2023/06/12 15:20:05;;;;;;;4.55;1.77;;;;;;;21.69;30.65;97904.84;10572446;28;20507;-67
2023/06/12 15:25:26;;;;;;;4.97;1.40;;;;;;;21.74;30.95;97897.19;10558516;28;20088;-67
2023/06/12 15:30:47;;;;;;;4.75;2.10;;;;;;;21.89;30.57;97898.25;10572147;28;20331;-67
2023/06/12 15:36:08;;;;;;;5.93;1.90;;;;;;;21.83;30.16;97893.16;10587375;28;20160;-67
2023/06/12 15:41:29;;;;;;;3.88;1.75;;;;;;;21.79;29.86;97895.88;10586924;28;20451;-67
2023/06/12 15:46:50;;;;;;;4.95;1.85;;;;;;;21.77;30.49;97897.94;10571743;28;20039;-67
2023/06/12 15:52:11;;;;;;;4.40;1.73;;;;;;;21.64;31.29;97897.63;10557037;28;20048;-67
2023/06/12 15:57:32;;;;;;;5.68;2.13;;;;;;;21.54;31.88;97905.91;10571444;28;20497;-67
2023/06/12 16:02:53;;;;;;;4.97;1.92;;;;;;;21.42;31.97;97900.63;10585909;28;20051;-67
2023/06/12 16:08:14;;;;;;;4.40;1.70;;;;;;;21.44;31.77;97888.59;10585834;28;20040;-67
2023/06/12 16:13:36;;;;;;;4.50;2.10;;;;;;;21.45;31.68;97901.38;10585297;28;20043;-67
2023/06/12 16:18:57;;;;;;;4.47;1.60;;;;;;;21.37;31.19;97901.16;10556286;28;20086;-67
2023/06/12 16:24:19;;;;;;;5.60;1.95;;;;;;;21.14;31.30;97903.34;10555651;28;20043;-67
2023/06/12 16:29:40;;;;;;;4.30;1.67;;;;;;;21.08;31.49;97897.50;10569770;28;20050;-67
2023/06/12 16:35:02;;;;;;;5.20;1.63;;;;;;;21.11;31.72;97889.75;10569485;28;20047;-67
2023/06/12 16:40:23;;;;;;;2.75;1.77;;;;;;;21.10;31.18;97902.50;10569780;28;20481;-67
2023/06/12 16:45:45;;;;;;;2.85;1.80;;;;;;;21.05;31.39;97909.47;10555288;28;20386;-67
2023/06/12 16:51:06;;;;;;;4.05;2.03;;;;;;;20.88;31.66;97890.50;10584322;28;20043;-67
2023/06/12 16:56:27;;;;;;;3.22;1.50;;;;;;;20.81;32.30;97881.81;10583920;28;20393;-67
2023/06/12 17:01:49;;;;;;;3.95;1.95;;;;;;;20.79;32.48;97895.94;10567882;28;20502;-67
2023/06/12 17:07:11;;;;;;;7.72;2.58;;;;;;;20.73;33.13;97892.91;10583014;28;20050;-67
2023/06/12 17:12:33;;;;;;;6.22;1.98;;;;;;;20.70;33.26;97885.75;10553386;28;20063;-67
2023/06/12 17:17:55;;;;;;;7.88;2.22;;;;;;;20.56;33.95;97893.84;10567683;28;20055;-66
2023/06/12 17:23:16;;;;;;;4.13;2.10;;;;;;;20.41;33.85;97886.97;10567706;28;20116;-67
2023/06/12 17:28:37;;;;;;;5.25;2.00;;;;;;;20.44;34.06;97879.25;10567647;28;20043;-67
2023/06/12 17:33:58;;;;;;;6.35;2.03;;;;;;;20.33;34.38;97880.31;10553174;28;20058;-69
2023/06/12 17:39:19;;;;;;;3.70;1.70;;;;;;;20.20;34.20;97884.88;10567126;28;20043;-69
2023/06/12 17:44:42;;;;;;;3.38;1.77;;;;;;;20.04;34.70;97873.72;10552739;28;20051;-66
2023/06/12 17:50:04;;;;;;;3.33;1.58;;;;;;;20.00;34.78;97882.84;10553282;28;20489;-67
2023/06/12 17:55:25;;;;;;;3.35;1.75;;;;;;;19.96;34.92;97884.81;10566955;28;20460;-67
2023/06/12 18:00:45;;;;;;;4.97;1.80;;;;;;;19.87;35.22;97885.91;10566693;28;20044;-67
2023/06/12 18:06:07;;;;;;;7.97;2.10;;;;;;;19.84;35.07;97879.47;10524484;28;20044;-67
2023/06/12 18:11:28;;;;;;;9.55;2.15;;;;;;;19.77;35.33;97888.41;10539281;28;20040;-67
2023/06/12 18:16:50;;;;;;;6.03;1.83;;;;;;;19.71;35.28;97881.16;10524372;28;20516;-67
2023/06/12 18:22:11;;;;;;;3.88;2.10;;;;;;;19.59;35.57;97883.59;10539030;28;20044;-68
2023/06/12 18:27:32;;;;;;;5.00;1.98;;;;;;;19.45;35.72;97880.94;10538262;28;20048;-68
2023/06/12 18:32:53;;;;;;;6.22;1.58;;;;;;;19.35;36.12;97883.44;10538484;28;20059;-67
2023/06/12 18:38:15;;;;;;;4.53;2.35;;;;;;;19.22;36.17;97887.22;10523800;28;20040;-68
2023/06/12 18:43:37;;;;;;;3.88;2.00;;;;;;;19.08;36.31;97873.28;10539018;28;20444;-67
2023/06/12 18:48:58;;;;;;;6.72;1.98;;;;;;;18.94;36.29;97883.34;10509849;28;20447;-69
2023/06/12 18:54:19;;;;;;;4.32;1.83;;;;;;;18.87;36.45;97891.59;10509666;28;20115;-68
2023/06/12 18:59:40;;;;;;;5.60;2.17;;;;;;;18.77;36.70;97887.66;10523602;28;20046;-68
2023/06/12 19:05:02;;;;;;;3.42;2.10;;;;;;;18.70;36.87;97885.97;10523350;28;20076;-69
2023/06/12 19:10:23;;;;;;;4.68;2.33;;;;;;;18.58;37.09;97892.59;10523573;28;20409;-69
2023/06/12 19:15:47;;;;;;;4.47;2.38;;;;;;;18.52;37.32;97895.19;10523590;28;20047;-68
2023/06/12 19:21:08;;;;;;;7.00;2.30;;;;;;;18.40;37.76;97889.06;10523380;28;20536;-68
2023/06/12 19:26:29;;;;;;;6.65;2.40;;;;;;;18.30;38.00;97895.03;10508930;28;20047;-69
2023/06/12 19:31:50;;;;;;;5.38;2.47;;;;;;;18.27;38.67;97898.44;10522939;28;20040;-69
2023/06/12 19:37:11;;;;;;;4.63;2.50;;;;;;;18.18;38.35;97893.84;10543186;28;20043;-69
2023/06/12 19:42:31;;;;;;;4.70;2.67;;;;;;;18.08;38.77;97893.44;10516341;28;20040;-69
2023/06/12 19:47:52;;;;;;;3.83;1.90;;;;;;;18.03;38.85;97895.34;10530109;28;20044;-68
2023/06/12 19:53:15;;;;;;;6.68;2.10;;;;;;;17.94;39.07;97905.59;10529839;28;20036;-68
2023/06/12 19:58:36;;;;;;;8.15;2.00;;;;;;;17.84;39.39;97893.16;10516162;28;20397;-68
2023/06/12 20:03:57;;;;;;;4.45;2.03;;;;;;;17.73;39.53;97894.84;10570594;28;20101;-68
2023/06/12 20:09:17;;;;;;;5.10;2.47;;;;;;;17.62;39.90;97899.31;10556981;28;20040;-68
2023/06/12 20:14:38;;;;;;;8.88;2.22;;;;;;;17.45;40.02;97894.31;10570711;28;20436;-69
2023/06/12 20:19:59;;;;;;;8.85;2.67;;;;;;;17.32;40.52;97901.53;10556721;28;20040;-68
2023/06/12 20:25:19;;;;;;;7.82;2.13;;;;;;;17.24;40.77;97892.00;10585890;28;20101;-69
2023/06/12 20:30:42;;;;;;;4.15;2.17;;;;;;;17.17;41.23;97891.00;10556286;28;20059;-69
2023/06/12 20:36:02;;;;;;;7.82;2.85;;;;;;;17.09;41.32;97887.84;10555636;28;20050;-69
2023/06/12 20:41:23;;;;;;;7.75;2.67;;;;;;;17.00;41.61;97881.13;10569701;28;20042;-68
2023/06/12 20:46:44;;;;;;;8.73;2.90;;;;;;;16.90;41.61;97885.56;10554575;28;20074;-69
2023/06/12 20:52:05;;;;;;;4.95;2.40;;;;;;;16.84;42.05;97874.75;10569180;28;20363;-69
2023/06/12 20:57:26;;;;;;;6.65;2.70;;;;;;;16.72;42.15;97869.28;10569315;28;20493;-69
2023/06/12 21:02:47;;;;;;;5.13;2.47;;;;;;;16.69;42.45;97870.53;10569064;28;20083;-69
2023/06/12 21:08:09;;;;;;;5.10;2.45;;;;;;;16.64;42.79;97868.16;10555288;28;20051;-68
2023/06/12 21:13:29;;;;;;;4.80;2.75;;;;;;;16.55;43.06;97864.25;10554549;28;20115;-68
2023/06/12 21:18:50;;;;;;;5.18;2.78;;;;;;;16.47;43.17;97863.84;10568398;28;20043;-68
2023/06/12 21:24:11;;;;;;;3.67;2.20;;;;;;;16.39;43.46;97867.03;10568244;28;20050;-69
2023/06/12 21:29:32;;;;;;;7.13;2.53;;;;;;;16.40;43.77;97856.47;10567928;28;20044;-69
2023/06/12 21:34:52;;;;;;;4.88;2.60;;;;;;;16.33;43.84;97858.31;10567688;28;20043;-69
2023/06/12 21:40:14;;;;;;;4.20;2.50;;;;;;;16.22;43.98;97857.09;10553687;28;20066;-68
2023/06/12 21:45:35;;;;;;;9.70;2.72;;;;;;;16.19;44.34;97861.16;10553482;28;20048;-69
2023/06/12 21:50:56;;;;;;;5.13;2.55;;;;;;;16.11;44.50;97860.78;10539425;28;20039;-68
2023/06/12 21:56:17;;;;;;;3.28;2.38;;;;;;;16.05;44.77;97848.50;10538942;28;20477;-69
2023/06/12 22:01:38;;;;;;;3.75;2.38;;;;;;;15.96;45.31;97859.38;10552762;28;20059;-68
2023/06/12 22:06:59;;;;;;;4.15;2.47;;;;;;;15.92;45.28;97847.19;10552857;28;20044;-69
2023/06/12 22:12:20;;;;;;;5.38;2.60;;;;;;;15.86;45.39;97841.28;10538847;28;20066;-68
2023/06/12 22:17:41;;;;;;;4.22;2.45;;;;;;;15.80;45.35;97843.78;10566409;28;20092;-68
2023/06/12 22:23:02;;;;;;;6.38;2.67;;;;;;;15.72;45.34;97835.69;10552645;28;20057;-68
2023/06/12 22:28:23;;;;;;;4.97;2.33;;;;;;;15.65;45.98;97834.66;10552206;28;20051;-68
2023/06/12 22:33:44;;;;;;;4.72;2.47;;;;;;;15.56;46.19;97818.72;10551892;28;20110;-68
2023/06/12 22:39:05;;;;;;;4.38;2.50;;;;;;;15.51;46.50;97824.75;10581261;28;20040;-69
2023/06/12 22:44:25;;;;;;;5.13;2.40;;;;;;;15.39;46.62;97825.63;10565819;28;20058;-68
2023/06/12 22:49:46;;;;;;;5.32;2.33;;;;;;;15.27;47.13;97821.47;10565853;28;20492;-69
2023/06/12 22:55:08;;;;;;;4.30;2.15;;;;;;;15.14;47.21;97812.41;10565773;28;20050;-68
2023/06/12 23:00:29;;;;;;;4.63;2.28;;;;;;;14.98;47.64;97822.13;10565795;28;20063;-69
2023/06/12 23:05:53;;;;;;;9.25;2.45;;;;;;;14.75;47.95;97811.78;10551503;28;20501;-69
2023/06/12 23:11:14;;;;;;;4.97;2.53;;;;;;;14.66;48.52;97815.50;10556024;28;20355;-68
2023/06/12 23:16:36;;;;;;;3.72;2.22;;;;;;;14.57;48.65;97803.88;10573847;28;20138;-69
2023/06/12 23:22:00;;;;;;;6.00;2.67;;;;;;;14.41;49.14;97802.97;10573568;28;20067;-68
2023/06/12 23:27:21;;;;;;;5.85;2.90;;;;;;;14.28;49.46;97798.81;10559153;28;20115;-69
2023/06/12 23:32:43;;;;;;;4.13;2.40;;;;;;;14.23;49.86;97799.91;10573045;28;20114;-68
2023/06/12 23:38:03;;;;;;;4.53;2.75;;;;;;;14.10;50.20;97802.69;10558633;28;20074;-68
2023/06/12 23:43:24;;;;;;;4.22;2.53;;;;;;;13.98;50.16;97822.38;10558531;28;20123;-68
2023/06/12 23:48:45;;;;;;;6.97;2.67;;;;;;;13.85;50.74;97823.78;10572388;28;20093;-68
2023/06/12 23:54:06;;;;;;;4.57;2.63;;;;;;;13.79;51.26;97820.63;10571863;28;20044;-68
2023/06/12 23:59:26;;;;;;;5.28;2.60;;;;;;;13.74;51.64;97810.53;10571462;28;20067;-69
